Time;durP1;ratioP1;P1;durP2;ratioP2;P2;SDS_P1;SDS_P2;PMS_P1;PMS_P2;Temp;Humidity;BMP_temperature;BMP_pressure;BME280_temperature;BME280_humidity;BME280_pressure;Samples;Min_cycle;Max_cycle;Signal;HPM_P1;HPM_P2
2021/07/29 00:02:00;;;;;;;4.78;4.30;;;17.70;99.90;;;;;;4992907;28;20113;-74
2021/07/29 00:04:25;;;;;;;6.63;3.90;;;17.70;99.90;;;;;;5004483;28;20084;-73
2021/07/29 00:06:51;;;;;;;5.85;4.25;;;17.70;99.90;;;;;;5002445;28;20030;-75
2021/07/29 00:09:16;;;;;;;5.63;4.30;;;17.70;99.90;;;;;;4998997;28;20034;-74
2021/07/29 00:11:42;;;;;;;6.20;4.80;;;17.70;99.90;;;;;;4999493;28;20064;-74
2021/07/29 00:14:07;;;;;;;5.25;4.22;;;17.70;99.90;;;;;;5004280;28;20026;-73
2021/07/29 00:16:42;;;;;;;8.38;4.75;;;17.50;99.90;;;;;;5005482;28;20084;-73
2021/07/29 00:19:08;;;;;;;6.07;4.25;;;17.50;99.90;;;;;;4980693;28;20022;-74
2021/07/29 00:21:36;;;;;;;6.03;4.68;;;17.50;99.90;;;;;;4991331;28;20018;-74
2021/07/29 00:24:02;;;;;;;5.43;4.20;;;17.40;99.90;;;;;;4991279;28;20428;-74
2021/07/29 00:26:28;;;;;;;6.57;4.78;;;17.30;99.90;;;;;;4993414;28;20018;-73
2021/07/29 00:28:54;;;;;;;10.60;4.55;;;17.10;99.90;;;;;;5004377;28;20033;-73
2021/07/29 00:31:20;;;;;;;5.55;4.15;;;17.10;99.90;;;;;;5005515;28;20033;-73
2021/07/29 00:33:45;;;;;;;5.43;4.43;;;17.00;99.90;;;;;;4999978;28;20033;-75
2021/07/29 00:36:21;;;;;;;6.18;4.50;;;17.00;99.90;;;;;;4997782;28;20033;-74
2021/07/29 00:38:47;;;;;;;4.80;4.07;;;16.90;99.90;;;;;;5000210;28;20025;-74
2021/07/29 00:41:14;;;;;;;5.43;4.45;;;17.00;99.90;;;;;;4998639;28;20105;-74
2021/07/29 00:43:39;;;;;;;5.90;4.15;;;16.90;99.90;;;;;;5003144;28;20026;-74
2021/07/29 00:46:05;;;;;;;6.47;4.57;;;16.80;99.90;;;;;;5005182;28;20463;-74
2021/07/29 00:48:31;;;;;;;6.25;4.45;;;16.90;99.90;;;;;;5001391;28;20026;-74
2021/07/29 00:50:56;;;;;;;4.88;4.13;;;17.00;99.90;;;;;;5002472;28;20038;-75
2021/07/29 00:53:22;;;;;;;4.70;4.20;;;16.90;99.90;;;;;;5006054;28;20082;-75
2021/07/29 00:55:48;;;;;;;4.38;3.97;;;16.90;99.90;;;;;;5009291;28;20033;-76
2021/07/29 00:58:14;;;;;;;6.95;4.55;;;16.90;99.90;;;;;;5004743;28;20080;-74
2021/07/29 01:00:39;;;;;;;5.30;4.20;;;17.00;99.90;;;;;;5002614;28;20485;-74
2021/07/29 01:03:05;;;;;;;8.15;4.20;;;17.00;99.90;;;;;;5007145;28;20037;-74
2021/07/29 01:05:30;;;;;;;5.25;4.40;;;16.90;99.90;;;;;;4996609;28;20022;-74
2021/07/29 01:07:56;;;;;;;5.95;4.00;;;17.00;99.90;;;;;;5007470;28;20033;-74
2021/07/29 01:10:22;;;;;;;8.43;4.22;;;17.00;99.90;;;;;;5009639;28;20040;-73
2021/07/29 01:12:47;;;;;;;5.28;4.07;;;17.00;99.90;;;;;;5004394;28;20682;-73
2021/07/29 01:15:13;;;;;;;5.32;3.63;;;17.10;99.90;;;;;;5001989;28;20110;-74
2021/07/29 01:17:38;;;;;;;6.93;3.83;;;17.00;99.90;;;;;;5007209;28;20058;-74
2021/07/29 01:20:05;;;;;;;4.85;3.65;;;17.00;99.90;;;;;;5007628;28;20037;-73
2021/07/29 01:22:35;;;;;;;4.22;3.83;;;17.00;99.90;;;;;;5003936;28;20029;-74
2021/07/29 01:25:01;;;;;;;6.93;4.05;;;17.00;99.90;;;;;;5012973;28;20053;-73
2021/07/29 01:27:30;;;;;;;5.95;3.70;;;16.80;99.90;;;;;;5004326;28;20038;-74
2021/07/29 01:29:57;;;;;;;3.90;3.47;;;16.70;99.90;;;;;;4999668;28;20053;-73
2021/07/29 01:32:22;;;;;;;5.65;3.88;;;16.70;99.90;;;;;;4995894;28;20440;-75
2021/07/29 01:34:48;;;;;;;4.30;3.88;;;16.70;99.90;;;;;;5007155;28;20045;-74
2021/07/29 01:37:14;;;;;;;5.43;4.10;;;16.60;99.90;;;;;;5004506;28;20092;-75
2021/07/29 01:39:39;;;;;;;5.22;4.40;;;16.60;99.90;;;;;;5001945;28;20097;-75
2021/07/29 01:42:05;;;;;;;4.93;3.60;;;16.50;99.90;;;;;;5006456;28;20486;-75
2021/07/29 01:44:30;;;;;;;7.03;3.88;;;16.60;99.90;;;;;;5008434;28;20415;-74
2021/07/29 01:46:56;;;;;;;6.90;4.07;;;16.50;99.90;;;;;;5003829;28;20116;-74
2021/07/29 01:49:22;;;;;;;4.90;4.28;;;16.40;99.90;;;;;;5001639;28;20046;-74
2021/07/29 01:51:48;;;;;;;5.65;3.88;;;16.30;99.90;;;;;;5006355;28;20088;-74
2021/07/29 01:54:15;;;;;;;5.43;3.97;;;16.40;99.90;;;;;;4995023;28;20030;-74
2021/07/29 01:56:41;;;;;;;6.53;4.05;;;16.40;99.90;;;;;;5002610;28;20026;-74
2021/07/29 01:59:07;;;;;;;6.22;4.38;;;16.40;99.90;;;;;;5000167;28;20018;-73
2021/07/29 02:01:32;;;;;;;5.25;4.30;;;16.30;99.90;;;;;;5014408;28;20022;-73
2021/07/29 02:03:58;;;;;;;5.47;3.97;;;16.20;99.90;;;;;;5011865;28;20034;-73
2021/07/29 02:06:23;;;;;;;5.90;4.28;;;16.30;99.90;;;;;;5004114;28;20038;-73
2021/07/29 02:08:49;;;;;;;5.20;4.10;;;16.10;99.90;;;;;;5011465;28;20025;-73
2021/07/29 02:11:15;;;;;;;6.72;4.30;;;16.20;99.90;;;;;;5004267;28;20021;-73
2021/07/29 02:13:40;;;;;;;5.30;4.80;;;16.10;99.90;;;;;;4999870;28;20061;-72
2021/07/29 02:16:10;;;;;;;8.02;4.65;;;16.10;99.90;;;;;;5005059;28;20054;-73
2021/07/29 02:18:36;;;;;;;5.22;4.40;;;16.10;99.90;;;;;;5007730;28;20037;-75
2021/07/29 02:21:02;;;;;;;6.43;4.97;;;16.00;99.90;;;;;;5004620;28;20025;-75
2021/07/29 02:23:27;;;;;;;7.03;4.72;;;15.90;99.90;;;;;;5001053;28;20412;-75
2021/07/29 02:25:53;;;;;;;5.93;4.50;;;15.90;99.90;;;;;;5004092;28;20061;-74
2021/07/29 02:28:18;;;;;;;5.80;4.80;;;16.00;99.90;;;;;;5007666;28;20106;-74
2021/07/29 02:30:44;;;;;;;6.18;4.60;;;16.00;99.90;;;;;;5004273;28;20133;-75
2021/07/29 02:33:09;;;;;;;5.80;5.05;;;15.90;99.90;;;;;;5000921;28;20025;-74
2021/07/29 02:35:35;;;;;;;5.65;4.65;;;15.90;99.90;;;;;;5013909;28;20064;-76
2021/07/29 02:38:01;;;;;;;5.38;4.80;;;16.00;99.90;;;;;;4997656;28;20473;-76
2021/07/29 02:40:26;;;;;;;6.82;4.78;;;15.80;99.90;;;;;;5003841;28;20484;-75
2021/07/29 02:42:52;;;;;;;7.53;5.00;;;15.80;99.90;;;;;;4996638;28;20033;-75
2021/07/29 02:45:17;;;;;;;7.10;5.50;;;15.70;99.90;;;;;;4994057;28;20037;-74
2021/07/29 02:47:43;;;;;;;6.93;4.68;;;15.80;99.90;;;;;;4996802;28;20085;-75
2021/07/29 02:50:08;;;;;;;5.00;4.50;;;15.90;99.90;;;;;;5003082;28;20022;-75
2021/07/29 02:52:34;;;;;;;6.40;5.03;;;15.80;99.90;;;;;;5007192;28;20752;-74
2021/07/29 02:54:59;;;;;;;8.13;4.75;;;15.80;99.90;;;;;;5002928;28;20026;-74
2021/07/29 02:57:25;;;;;;;10.40;4.70;;;15.80;99.90;;;;;;5000238;28;20022;-74
2021/07/29 02:59:50;;;;;;;7.35;4.50;;;16.10;99.90;;;;;;5004747;28;20026;-74
2021/07/29 03:02:16;;;;;;;5.70;4.55;;;15.90;99.90;;;;;;5007068;28;20034;-74
2021/07/29 03:04:41;;;;;;;5.65;4.85;;;16.00;99.90;;;;;;4993772;28;20023;-75
2021/07/29 03:07:07;;;;;;;10.93;5.10;;;15.80;99.90;;;;;;4993782;28;20069;-74
2021/07/29 03:09:33;;;;;;;6.40;5.07;;;15.80;99.90;;;;;;4993705;28;20022;-74
2021/07/29 03:11:59;;;;;;;6.47;4.95;;;15.70;99.90;;;;;;4999696;28;20031;-74
2021/07/29 03:14:24;;;;;;;8.18;4.88;;;15.50;99.90;;;;;;5004074;28;20033;-74
2021/07/29 03:16:50;;;;;;;7.07;4.75;;;15.50;99.90;;;;;;5006825;28;20102;-74
2021/07/29 03:19:16;;;;;;;5.25;4.70;;;15.40;99.90;;;;;;5002098;28;20116;-75
2021/07/29 03:21:41;;;;;;;6.28;4.82;;;15.60;99.90;;;;;;4999785;28;20036;-75
2021/07/29 03:24:07;;;;;;;5.35;4.70;;;15.60;99.90;;;;;;5004621;28;20559;-75
2021/07/29 03:26:33;;;;;;;5.45;4.93;;;15.40;99.90;;;;;;5006295;28;20072;-75
2021/07/29 03:28:59;;;;;;;8.63;4.75;;;15.50;99.90;;;;;;5002119;28;20025;-74
2021/07/29 03:31:24;;;;;;;7.75;4.97;;;15.70;99.90;;;;;;4997756;28;20030;-74
2021/07/29 03:33:50;;;;;;;7.63;4.53;;;15.70;99.90;;;;;;5001895;28;20069;-73
2021/07/29 03:36:15;;;;;;;6.90;4.88;;;15.60;99.90;;;;;;4997414;28;20092;-73
2021/07/29 03:38:41;;;;;;;6.85;4.80;;;15.40;99.90;;;;;;4991801;28;20106;-73
2021/07/29 03:41:10;;;;;;;6.10;5.00;;;15.40;99.90;;;;;;5006392;28;20029;-73
2021/07/29 03:43:36;;;;;;;6.43;5.43;;;15.40;99.90;;;;;;5001857;28;20105;-73
2021/07/29 03:46:01;;;;;;;7.50;5.53;;;15.30;99.90;;;;;;4999152;28;20449;-73
2021/07/29 03:48:27;;;;;;;6.82;5.35;;;15.30;99.90;;;;;;5004075;28;20038;-73
2021/07/29 03:50:52;;;;;;;31.88;5.82;;;15.30;99.90;;;;;;4993366;28;20049;-74
2021/07/29 03:53:18;;;;;;;8.63;4.82;;;15.40;99.90;;;;;;5002951;28;20030;-75
2021/07/29 03:55:44;;;;;;;5.43;4.90;;;15.40;99.90;;;;;;5006324;28;20041;-75
2021/07/29 03:58:10;;;;;;;8.60;5.00;;;15.50;99.90;;;;;;5001234;28;20049;-74
2021/07/29 04:00:35;;;;;;;8.55;5.43;;;15.40;99.90;;;;;;4998023;28;20026;-74
2021/07/29 04:03:01;;;;;;;5.13;4.57;;;15.40;99.90;;;;;;5004327;28;20019;-74
2021/07/29 04:05:26;;;;;;;7.45;4.72;;;15.40;99.90;;;;;;4992976;28;20436;-74
2021/07/29 04:07:52;;;;;;;6.82;5.07;;;15.40;99.90;;;;;;5012511;28;20022;-75
2021/07/29 04:10:17;;;;;;;8.43;5.38;;;15.30;99.90;;;;;;4999100;28;20393;-75
2021/07/29 04:12:43;;;;;;;9.07;5.03;;;15.30;99.90;;;;;;4995943;28;20018;-74
2021/07/29 04:15:09;;;;;;;6.57;4.75;;;15.30;99.90;;;;;;4994413;28;20482;-74
2021/07/29 04:17:35;;;;;;;7.72;5.20;;;15.40;99.90;;;;;;5004434;28;20034;-74
2021/07/29 04:20:00;;;;;;;8.38;5.00;;;15.40;99.90;;;;;;5006895;28;20026;-74
2021/07/29 04:22:26;;;;;;;7.43;5.03;;;15.50;99.90;;;;;;5004467;28;20036;-74
2021/07/29 04:24:55;;;;;;;5.93;4.55;;;15.40;99.90;;;;;;4990190;28;20048;-74
2021/07/29 04:27:21;;;;;;;7.70;5.50;;;15.40;99.90;;;;;;5000841;28;20060;-74
2021/07/29 04:29:47;;;;;;;8.50;4.68;;;15.50;99.90;;;;;;4999065;28;20671;-74
2021/07/29 04:32:13;;;;;;;6.20;5.00;;;15.50;99.90;;;;;;5003959;28;20117;-74
2021/07/29 04:34:39;;;;;;;6.28;4.68;;;15.60;99.90;;;;;;5005254;28;20555;-74
2021/07/29 04:37:05;;;;;;;8.13;4.45;;;15.40;99.90;;;;;;5001011;28;20025;-74
2021/07/29 04:39:30;;;;;;;7.43;4.72;;;15.60;99.90;;;;;;4997613;28;20058;-74
2021/07/29 04:41:56;;;;;;;6.22;4.63;;;15.60;99.90;;;;;;5002320;28;20030;-73
2021/07/29 04:44:22;;;;;;;7.38;4.72;;;15.60;99.90;;;;;;5005421;28;20034;-74
2021/07/29 04:46:47;;;;;;;6.00;4.35;;;15.50;99.90;;;;;;5000567;28;20120;-74
2021/07/29 04:49:18;;;;;;;7.80;4.35;;;15.60;99.90;;;;;;4998725;28;20121;-74
2021/07/29 04:51:44;;;;;;;5.05;4.50;;;15.70;99.90;;;;;;5002147;28;20038;-74
2021/07/29 04:54:09;;;;;;;5.38;4.63;;;15.70;99.90;;;;;;5005325;28;20026;-74
2021/07/29 04:56:35;;;;;;;8.32;4.80;;;15.70;99.90;;;;;;5000686;28;20022;-74
2021/07/29 04:59:00;;;;;;;7.15;4.45;;;15.70;99.90;;;;;;4997327;28;20030;-74
2021/07/29 05:01:26;;;;;;;6.22;4.70;;;15.80;99.90;;;;;;5002399;28;20049;-74
2021/07/29 05:03:52;;;;;;;5.35;4.38;;;15.90;99.90;;;;;;5005249;28;20495;-74
2021/07/29 05:06:17;;;;;;;5.68;4.20;;;15.90;99.90;;;;;;5000423;28;20030;-74
2021/07/29 05:08:43;;;;;;;8.20;4.88;;;15.80;99.90;;;;;;4996800;28;20034;-73
2021/07/29 05:11:09;;;;;;;6.65;4.35;;;15.90;99.90;;;;;;4992165;28;20030;-73
2021/07/29 05:13:38;;;;;;;7.07;4.50;;;16.00;99.90;;;;;;5006951;28;20049;-72
2021/07/29 05:16:05;;;;;;;7.35;4.38;;;16.10;99.90;;;;;;5003065;28;20101;-74
2021/07/29 05:18:32;;;;;;;6.07;4.53;;;16.20;99.90;;;;;;5005390;28;20049;-74
2021/07/29 05:21:02;;;;;;;7.07;4.32;;;16.20;99.90;;;;;;4999167;28;20033;-74
2021/07/29 05:23:27;;;;;;;4.47;4.07;;;16.30;99.90;;;;;;4998351;28;20037;-73
2021/07/29 05:25:53;;;;;;;5.28;4.50;;;16.20;99.90;;;;;;5002542;28;20505;-73
2021/07/29 05:28:18;;;;;;;6.90;4.55;;;16.40;99.90;;;;;;4992681;28;20038;-73
2021/07/29 05:30:44;;;;;;;6.53;4.40;;;16.40;99.90;;;;;;5000792;28;20033;-73
2021/07/29 05:33:10;;;;;;;4.55;4.10;;;16.50;99.90;;;;;;4998539;28;20481;-73
2021/07/29 05:35:35;;;;;;;5.78;4.45;;;16.50;99.90;;;;;;5004097;28;20045;-74
2021/07/29 05:38:01;;;;;;;7.57;4.22;;;16.60;99.90;;;;;;4995554;28;20019;-72
2021/07/29 05:40:26;;;;;;;4.93;4.13;;;16.80;99.90;;;;;;4995466;28;20038;-72
2021/07/29 05:42:52;;;;;;;4.03;3.63;;;16.80;99.90;;;;;;4995461;28;20432;-73
2021/07/29 05:45:17;;;;;;;6.00;3.80;;;16.90;99.90;;;;;;4995150;28;20037;-73
2021/07/29 05:47:43;;;;;;;7.30;3.85;;;17.00;99.90;;;;;;5010058;28;20160;-72
2021/07/29 05:50:09;;;;;;;5.53;3.83;;;17.10;99.90;;;;;;5004928;28;20037;-72
2021/07/29 05:52:35;;;;;;;8.93;3.80;;;17.30;99.90;;;;;;4995169;28;20109;-72
2021/07/29 05:55:00;;;;;;;4.93;3.67;;;17.50;99.90;;;;;;4995030;28;20422;-72
2021/07/29 05:57:26;;;;;;;4.88;3.47;;;17.70;99.90;;;;;;5010083;28;20036;-72
2021/07/29 05:59:52;;;;;;;3.97;3.40;;;17.60;99.90;;;;;;5013382;28;20044;-72
2021/07/29 06:02:17;;;;;;;6.13;3.65;;;17.50;99.90;;;;;;5013471;28;20026;-73
2021/07/29 06:04:43;;;;;;;4.15;3.75;;;17.70;99.90;;;;;;4995318;28;20026;-73
2021/07/29 06:07:08;;;;;;;4.88;3.78;;;17.70;99.90;;;;;;4993855;28;20030;-73
2021/07/29 06:09:34;;;;;;;4.32;3.33;;;17.60;99.90;;;;;;5003825;28;20034;-72
2021/07/29 06:11:59;;;;;;;7.97;4.15;;;17.70;99.90;;;;;;4999134;28;20030;-73
2021/07/29 06:14:25;;;;;;;8.43;4.03;;;17.80;99.90;;;;;;5003067;28;20022;-72
2021/07/29 06:16:50;;;;;;;6.10;3.92;;;18.00;99.90;;;;;;4998978;28;20046;-72
2021/07/29 06:19:28;;;;;;;5.40;3.78;;;17.70;99.90;;;;;;4994723;28;20030;-72
2021/07/29 06:21:55;;;;;;;6.07;4.28;;;17.80;99.90;;;;;;4998444;28;20021;-72
2021/07/29 06:24:21;;;;;;;4.68;3.50;;;17.80;99.90;;;;;;5014033;28;20030;-73
2021/07/29 06:26:48;;;;;;;5.47;3.47;;;17.90;99.90;;;;;;5000978;28;20037;-73
2021/07/29 06:29:14;;;;;;;5.60;3.63;;;17.80;99.90;;;;;;5014011;28;20018;-73
2021/07/29 06:31:39;;;;;;;6.97;4.22;;;17.80;99.90;;;;;;4997113;28;20432;-73
2021/07/29 06:34:04;;;;;;;6.47;4.05;;;17.90;99.90;;;;;;4994371;28;20034;-73
2021/07/29 06:36:30;;;;;;;7.32;3.67;;;18.00;99.90;;;;;;4997652;28;20044;-73
2021/07/29 06:38:57;;;;;;;5.88;4.32;;;18.10;99.90;;;;;;5012631;28;20052;-73
2021/07/29 06:41:23;;;;;;;7.43;3.47;;;18.20;99.90;;;;;;5000923;28;20389;-73
2021/07/29 06:43:49;;;;;;;7.38;3.85;;;18.20;99.90;;;;;;5002255;28;20033;-73
2021/07/29 06:46:14;;;;;;;6.28;3.83;;;18.20;99.90;;;;;;4993219;28;20030;-73
2021/07/29 06:48:40;;;;;;;5.20;3.40;;;18.20;99.90;;;;;;4992541;28;20038;-73
2021/07/29 06:51:07;;;;;;;5.38;3.90;;;18.20;99.90;;;;;;4994063;28;20105;-73
2021/07/29 06:53:35;;;;;;;5.70;3.38;;;18.30;99.90;;;;;;5005400;28;20080;-77
2021/07/29 06:56:02;;;;;;;7.72;3.63;;;18.40;99.90;;;;;;4996845;28;20109;-75
2021/07/29 06:58:27;;;;;;;3.83;3.20;;;18.40;99.90;;;;;;4993976;28;20032;-73
2021/07/29 07:00:53;;;;;;;4.13;3.40;;;18.40;99.90;;;;;;4993788;28;20022;-72
2021/07/29 07:03:19;;;;;;;7.32;3.83;;;18.40;99.90;;;;;;4993823;28;20034;-72
2021/07/29 07:05:47;;;;;;;5.35;3.58;;;18.40;99.90;;;;;;4993734;28;20102;-72
2021/07/29 07:08:13;;;;;;;5.18;3.58;;;18.50;99.90;;;;;;5004944;28;20469;-74
2021/07/29 07:10:40;;;;;;;5.85;4.15;;;18.40;99.90;;;;;;5000299;28;20040;-73
2021/07/29 07:13:05;;;;;;;5.05;3.60;;;18.40;99.90;;;;;;5004533;28;20030;-73
2021/07/29 07:15:31;;;;;;;5.05;3.70;;;18.30;99.90;;;;;;4995851;28;20420;-73
2021/07/29 07:17:56;;;;;;;4.65;3.67;;;18.40;99.90;;;;;;4992435;28;20030;-73
2021/07/29 07:20:26;;;;;;;4.07;3.25;;;18.50;99.90;;;;;;5006797;28;20101;-73
2021/07/29 07:22:52;;;;;;;5.68;3.78;;;18.40;99.90;;;;;;5003962;28;20396;-73
2021/07/29 07:25:19;;;;;;;7.05;3.85;;;18.70;99.90;;;;;;5000376;28;20036;-73
2021/07/29 07:27:44;;;;;;;6.63;3.60;;;18.80;99.90;;;;;;5011901;28;20396;-73
2021/07/29 07:30:10;;;;;;;4.78;3.38;;;19.10;99.90;;;;;;4998779;28;20022;-73
2021/07/29 07:32:36;;;;;;;6.68;3.92;;;19.20;99.90;;;;;;5001806;28;20080;-73
2021/07/29 07:35:03;;;;;;;4.68;3.67;;;19.40;99.90;;;;;;5006219;28;20038;-73
2021/07/29 07:37:28;;;;;;;3.30;3.00;;;19.40;99.90;;;;;;5004093;28;20140;-74
2021/07/29 07:39:54;;;;;;;5.80;3.70;;;19.50;99.90;;;;;;4999531;28;20112;-73
2021/07/29 07:42:19;;;;;;;7.25;3.20;;;19.50;99.90;;;;;;5001056;28;20149;-73
2021/07/29 07:44:45;;;;;;;4.93;3.13;;;19.70;99.90;;;;;;4993031;28;20495;-73
2021/07/29 07:47:10;;;;;;;7.32;3.78;;;19.60;99.90;;;;;;4993289;28;20057;-73
2021/07/29 07:49:38;;;;;;;4.13;3.30;;;19.70;99.90;;;;;;4995047;28;20033;-73
2021/07/29 07:52:08;;;;;;;6.13;3.30;;;19.80;99.90;;;;;;5002721;28;20027;-73
2021/07/29 07:54:34;;;;;;;4.68;3.20;;;19.80;99.90;;;;;;4991611;28;20034;-73
2021/07/29 07:56:59;;;;;;;4.95;3.05;;;19.90;99.90;;;;;;5002222;28;20044;-73
2021/07/29 07:59:25;;;;;;;4.40;3.15;;;19.90;99.90;;;;;;4999263;28;20060;-73
2021/07/29 08:01:50;;;;;;;3.30;3.00;;;19.90;99.90;;;;;;5002094;28;20022;-73
2021/07/29 08:04:16;;;;;;;3.97;3.50;;;19.90;99.90;;;;;;5004922;28;20057;-73
2021/07/29 08:06:41;;;;;;;5.15;3.72;;;19.80;99.90;;;;;;5004503;28;20025;-73
2021/07/29 08:09:07;;;;;;;6.57;3.70;;;19.80;99.90;;;;;;4999321;28;20488;-74
2021/07/29 08:11:32;;;;;;;5.65;3.40;;;19.70;99.90;;;;;;5000967;28;20551;-73
2021/07/29 08:13:58;;;;;;;9.48;3.67;;;19.90;99.90;;;;;;5005862;28;20030;-73
2021/07/29 08:16:24;;;;;;;3.88;3.30;;;19.90;99.90;;;;;;5002540;28;20022;-73
2021/07/29 08:18:50;;;;;;;3.95;3.00;;;20.00;99.90;;;;;;4999197;28;20109;-73
2021/07/29 08:21:16;;;;;;;4.72;3.17;;;20.00;99.90;;;;;;5001017;28;20018;-74
2021/07/29 08:23:42;;;;;;;5.95;3.63;;;20.30;99.90;;;;;;5005778;28;20501;-73
2021/07/29 08:26:10;;;;;;;4.28;3.35;;;20.40;99.90;;;;;;5003581;28;20058;-74
2021/07/29 08:28:40;;;;;;;7.28;3.53;;;20.50;99.90;;;;;;4999025;28;20022;-73
2021/07/29 08:31:10;;;;;;;5.78;3.33;;;20.50;99.90;;;;;;5000319;28;20054;-73
2021/07/29 08:33:36;;;;;;;5.50;3.53;;;20.60;99.90;;;;;;5005518;28;20041;-74
2021/07/29 08:36:02;;;;;;;5.45;3.28;;;20.50;99.90;;;;;;5004686;28;20022;-73
2021/07/29 08:38:27;;;;;;;5.40;3.60;;;20.50;99.90;;;;;;4997706;28;20618;-73
2021/07/29 08:40:54;;;;;;;6.80;3.70;;;20.30;99.90;;;;;;4999488;28;20026;-73
2021/07/29 08:43:21;;;;;;;4.60;3.78;;;20.10;99.90;;;;;;5005596;28;20440;-73
2021/07/29 08:45:50;;;;;;;8.63;3.78;;;20.10;99.90;;;;;;4992239;28;20026;-73
2021/07/29 08:48:23;;;;;;;6.13;3.35;;;19.80;99.90;;;;;;5005569;28;20543;-74
2021/07/29 08:50:48;;;;;;;4.25;3.55;;;19.60;99.90;;;;;;5005364;28;20033;-73
2021/07/29 08:53:14;;;;;;;5.88;3.88;;;19.50;99.90;;;;;;4999513;28;20045;-73
2021/07/29 08:55:40;;;;;;;7.18;4.05;;;19.40;99.90;;;;;;4998582;28;20023;-73
2021/07/29 08:58:05;;;;;;;7.35;3.97;;;19.50;99.90;;;;;;5004669;28;20120;-73
2021/07/29 09:00:31;;;;;;;5.43;3.80;;;19.70;99.90;;;;;;4992310;28;20022;-74
2021/07/29 09:03:20;;;;;;;6.97;3.70;;;20.10;99.90;;;;;;5005050;28;20528;-73
2021/07/29 09:06:09;;;;;;;5.93;3.63;;;20.60;99.90;;;;;;4996222;28;20480;-73
2021/07/29 09:08:47;;;;;;;7.47;4.18;;;20.60;99.90;;;;;;4998446;28;20026;-74
2021/07/29 09:11:29;;;;;;;4.93;3.67;;;20.60;99.90;;;;;;5004786;28;20088;-73
2021/07/29 09:14:03;;;;;;;5.80;3.78;;;20.30;99.90;;;;;;5009032;28;20030;-73
2021/07/29 09:16:33;;;;;;;6.65;4.20;;;20.20;99.90;;;;;;5007601;28;20656;-73
2021/07/29 09:18:59;;;;;;;7.97;3.97;;;20.10;99.90;;;;;;4996517;28;20628;-73
2021/07/29 09:21:24;;;;;;;6.68;4.03;;;19.90;99.90;;;;;;4995923;28;20026;-73
2021/07/29 09:24:08;;;;;;;5.03;3.75;;;20.00;99.90;;;;;;4994538;28;20515;-73
2021/07/29 09:26:57;;;;;;;4.65;3.90;;;19.90;99.90;;;;;;5007331;28;20112;-74
2021/07/29 09:29:25;;;;;;;4.53;3.42;;;19.90;99.90;;;;;;5006601;28;20029;-73
2021/07/29 09:32:04;;;;;;;4.82;3.40;;;19.90;99.90;;;;;;5000891;28;20025;-73
2021/07/29 09:34:42;;;;;;;6.78;3.55;;;20.50;99.90;;;;;;5001718;28;20033;-74
2021/07/29 09:37:07;;;;;;;7.60;4.13;;;20.70;99.90;;;;;;5004013;28;20117;-73
2021/07/29 09:39:33;;;;;;;7.75;3.35;;;21.10;99.90;;;;;;5000182;28;20105;-73
2021/07/29 09:42:18;;;;;;;5.22;3.60;;;21.40;99.90;;;;;;4994112;28;20510;-73
2021/07/29 09:44:46;;;;;;;5.53;3.80;;;21.30;99.90;;;;;;5008547;28;20516;-74
2021/07/29 09:47:12;;;;;;;4.07;3.10;;;21.30;99.90;;;;;;4992684;28;20085;-73
2021/07/29 09:49:39;;;;;;;5.05;3.25;;;21.40;99.90;;;;;;4998364;28;20038;-73
2021/07/29 09:52:05;;;;;;;6.28;3.75;;;21.20;99.90;;;;;;5002116;28;20480;-74
2021/07/29 09:54:31;;;;;;;4.75;3.72;;;21.40;99.90;;;;;;5007668;28;20034;-74
2021/07/29 09:56:56;;;;;;;7.10;3.53;;;21.70;99.90;;;;;;4994452;28;20045;-74
2021/07/29 09:59:22;;;;;;;9.25;3.90;;;21.90;99.90;;;;;;4999306;28;20499;-73
2021/07/29 10:01:50;;;;;;;3.72;2.95;;;21.40;99.90;;;;;;5004102;28;20030;-73
2021/07/29 10:04:22;;;;;;;5.93;3.30;;;21.10;99.90;;;;;;5007697;28;20022;-73
2021/07/29 10:06:50;;;;;;;5.65;3.50;;;21.10;99.90;;;;;;4995098;28;20457;-73
2021/07/29 10:09:18;;;;;;;4.53;3.00;;;21.40;99.90;;;;;;5000924;28;20396;-73
2021/07/29 10:11:48;;;;;;;6.40;3.55;;;21.00;99.90;;;;;;5001882;28;20416;-73
2021/07/29 10:14:52;;;;;;;4.78;3.65;;;21.30;99.90;;;;;;4988913;28;20029;-73
2021/07/29 10:17:38;;;;;;;5.35;3.13;;;21.20;99.90;;;;;;4995312;28;20029;-73
2021/07/29 10:20:15;;;;;;;4.73;3.93;;;21.10;99.90;;;;;;5000996;28;20029;-73
2021/07/29 10:22:42;;;;;;;5.35;3.58;;;21.20;99.90;;;;;;5004590;28;20101;-73
2021/07/29 10:25:08;;;;;;;5.20;3.47;;;21.30;99.90;;;;;;5007778;28;20030;-73
2021/07/29 10:27:33;;;;;;;4.10;3.70;;;21.40;99.90;;;;;;5004140;28;20037;-73
2021/07/29 10:30:18;;;;;;;4.53;3.55;;;22.20;99.90;;;;;;5001094;28;20100;-73
2021/07/29 10:32:46;;;;;;;4.13;3.28;;;22.10;99.90;;;;;;5000841;28;20030;-74
2021/07/29 10:35:30;;;;;;;5.88;4.18;;;21.60;99.90;;;;;;5007213;28;20477;-73
2021/07/29 10:37:59;;;;;;;5.10;3.60;;;21.80;99.90;;;;;;4999918;28;20031;-74
2021/07/29 10:40:35;;;;;;;5.97;3.50;;;21.80;99.90;;;;;;5001613;28;20018;-73
2021/07/29 10:43:25;;;;;;;5.10;3.80;;;21.30;99.90;;;;;;4999741;28;20022;-73
2021/07/29 10:45:58;;;;;;;10.10;4.00;;;21.80;99.90;;;;;;5007734;28;20121;-73
2021/07/29 10:48:46;;;;;;;4.00;3.70;;;22.00;99.90;;;;;;4987516;28;20102;-73
2021/07/29 10:51:12;;;;;;;7.20;4.10;;;21.60;99.90;;;;;;4992847;28;20060;-74
2021/07/29 10:53:42;;;;;;;8.32;3.67;;;21.50;99.90;;;;;;5004645;28;20088;-74
2021/07/29 10:56:09;;;;;;;5.15;3.80;;;21.80;99.90;;;;;;5000288;28;20030;-74
2021/07/29 10:59:03;;;;;;;6.10;3.88;;;22.10;99.90;;;;;;5013560;28;20028;-73
2021/07/29 11:01:47;;;;;;;5.20;3.60;;;22.10;99.90;;;;;;4991258;28;20022;-73
2021/07/29 11:04:13;;;;;;;5.65;3.75;;;22.00;99.90;;;;;;4998924;28;20022;-73
2021/07/29 11:06:42;;;;;;;5.85;3.40;;;22.30;99.90;;;;;;5001890;28;20080;-73
2021/07/29 11:09:21;;;;;;;7.10;3.67;;;22.80;99.90;;;;;;5005366;28;20033;-73
2021/07/29 11:11:48;;;;;;;6.30;4.28;;;22.40;99.90;;;;;;4992421;28;20556;-74
2021/07/29 11:14:24;;;;;;;3.97;3.55;;;22.70;99.90;;;;;;4993693;28;20026;-73
2021/07/29 11:16:51;;;;;;;7.38;3.40;;;22.50;99.90;;;;;;4993968;28;20109;-73
2021/07/29 11:19:16;;;;;;;10.27;3.85;;;21.70;99.90;;;;;;5000765;28;20026;-74
2021/07/29 11:21:42;;;;;;;6.22;3.95;;;21.40;99.90;;;;;;4998807;28;20033;-74
2021/07/29 11:24:24;;;;;;;5.78;3.42;;;21.10;99.90;;;;;;5003991;28;20031;-73
2021/07/29 11:26:50;;;;;;;7.70;3.83;;;21.00;99.90;;;;;;5010408;28;20418;-73
2021/07/29 11:29:16;;;;;;;5.50;3.35;;;21.10;99.90;;;;;;4993810;28;20109;-73
2021/07/29 11:31:42;;;;;;;9.25;3.30;;;21.40;99.90;;;;;;5000047;28;20125;-73
2021/07/29 11:34:08;;;;;;;5.15;3.65;;;21.70;99.90;;;;;;5000991;28;20069;-73
2021/07/29 11:36:34;;;;;;;6.18;3.92;;;22.50;99.90;;;;;;5005157;28;20057;-73
2021/07/29 11:39:08;;;;;;;6.88;3.75;;;22.60;99.90;;;;;;5004192;28;20030;-73
2021/07/29 11:41:51;;;;;;;5.03;3.90;;;22.60;99.90;;;;;;4994171;28;20064;-74
2021/07/29 11:44:17;;;;;;;6.78;3.75;;;22.80;99.90;;;;;;4993290;28;20026;-74
2021/07/29 11:46:58;;;;;;;5.82;4.15;;;22.40;99.90;;;;;;5000879;28;20159;-73
2021/07/29 11:49:25;;;;;;;5.78;3.78;;;22.40;99.90;;;;;;4999531;28;20042;-74
2021/07/29 11:52:08;;;;;;;7.88;3.25;;;22.50;99.90;;;;;;5002839;28;20025;-74
2021/07/29 11:54:34;;;;;;;5.95;3.42;;;22.80;99.90;;;;;;5005863;28;20110;-74
2021/07/29 11:57:01;;;;;;;5.70;3.33;;;22.60;99.90;;;;;;5005449;28;20449;-74
2021/07/29 11:59:42;;;;;;;4.47;3.33;;;23.00;99.90;;;;;;4999186;28;20064;-73
2021/07/29 12:02:09;;;;;;;4.65;3.40;;;22.80;99.90;;;;;;4996648;28;20033;-74
2021/07/29 12:04:39;;;;;;;3.80;3.25;;;23.00;99.90;;;;;;4999538;28;20124;-74
2021/07/29 12:07:07;;;;;;;6.25;3.35;;;22.50;99.90;;;;;;4999194;28;20062;-73
2021/07/29 12:09:34;;;;;;;14.15;3.38;;;22.50;99.90;;;;;;5004336;28;20018;-73
2021/07/29 12:12:01;;;;;;;6.05;3.35;;;21.70;99.90;;;;;;5005896;28;20026;-75
2021/07/29 12:14:27;;;;;;;6.93;3.45;;;21.80;99.90;;;;;;5000753;28;20032;-74
2021/07/29 12:16:54;;;;;;;5.20;3.47;;;22.20;99.90;;;;;;4999253;28;20023;-73
2021/07/29 12:19:21;;;;;;;4.60;3.50;;;22.90;99.90;;;;;;5003613;28;20018;-73
2021/07/29 12:21:48;;;;;;;4.93;3.50;;;23.10;99.90;;;;;;5005864;28;20026;-73
2021/07/29 12:24:14;;;;;;;4.97;3.45;;;23.30;99.90;;;;;;5001452;28;20060;-73
2021/07/29 12:26:40;;;;;;;6.65;3.70;;;23.00;99.90;;;;;;4998734;28;20515;-74
2021/07/29 12:29:05;;;;;;;5.78;3.92;;;23.20;99.90;;;;;;5003348;28;20022;-73
2021/07/29 12:31:32;;;;;;;6.88;3.22;;;23.60;99.90;;;;;;5005554;28;20041;-74
2021/07/29 12:34:04;;;;;;;5.47;3.65;;;23.70;99.90;;;;;;5001068;28;20041;-71
2021/07/29 12:36:50;;;;;;;6.07;3.53;;;23.60;99.90;;;;;;5008942;28;20029;-72
2021/07/29 12:39:17;;;;;;;4.93;3.78;;;23.10;99.90;;;;;;5003100;28;20025;-74
2021/07/29 12:41:45;;;;;;;8.40;4.10;;;23.90;99.90;;;;;;4999012;28;20018;-75
2021/07/29 12:44:15;;;;;;;5.20;3.50;;;24.30;99.90;;;;;;4999341;28;20062;-75
2021/07/29 12:46:43;;;;;;;4.75;3.78;;;24.10;99.90;;;;;;5002559;28;20033;-74
2021/07/29 12:49:09;;;;;;;4.82;3.30;;;23.70;99.90;;;;;;5002812;28;20113;-73